Time;durP1;ratioP1;P1;durP2;ratioP2;P2;SDS_P1;SDS_P2;PMS_P1;PMS_P2;Temp;Humidity;BMP_temperature;BMP_pressure;BME280_temperature;BME280_humidity;BME280_pressure;Samples;Min_cycle;Max_cycle;Signal;HPM_P1;HPM_P2
2023/04/17 00:02:10;;;;;;;1999.90;999.90;;;30.50;83.70;;;;;;5046757;28;20033;-70
2023/04/17 00:04:39;;;;;;;1999.90;999.90;;;30.60;83.90;;;;;;5042365;28;20013;-70
2023/04/17 00:07:08;;;;;;;1999.90;999.90;;;30.80;83.00;;;;;;5047062;28;20042;-69
2023/04/17 00:09:35;;;;;;;1999.90;999.90;;;30.80;82.60;;;;;;5046050;28;20049;-70
2023/04/17 00:12:03;;;;;;;1999.90;999.90;;;30.90;83.20;;;;;;5050057;28;20055;-69
2023/04/17 00:14:30;;;;;;;1999.90;999.90;;;31.30;81.60;;;;;;5044429;28;20523;-69
2023/04/17 00:16:57;;;;;;;1999.90;999.90;;;31.90;80.10;;;;;;5036204;28;20030;-69
2023/04/17 00:19:26;;;;;;;1999.90;999.90;;;31.70;80.80;;;;;;5035192;28;20017;-68
2023/04/17 00:21:53;;;;;;;1999.90;999.90;;;31.80;80.20;;;;;;5042387;28;20036;-69
2023/04/17 00:24:20;;;;;;;1999.90;999.90;;;31.60;79.80;;;;;;5040348;28;20123;-70
2023/04/17 00:26:48;;;;;;;1999.90;999.90;;;31.30;81.50;;;;;;5041151;28;20049;-70
2023/04/17 00:29:15;;;;;;;1999.90;999.90;;;31.80;80.00;;;;;;5033230;28;20027;-69
2023/04/17 00:31:42;;;;;;;1999.90;999.90;;;31.70;80.80;;;;;;5033517;28;20033;-70
2023/04/17 00:34:09;;;;;;;1999.90;999.90;;;31.90;80.90;;;;;;5032315;28;20029;-70
2023/04/17 00:36:37;;;;;;;1999.90;999.90;;;32.00;80.80;;;;;;5046885;28;20059;-68
2023/04/17 00:39:04;;;;;;;1999.90;999.90;;;32.40;80.90;;;;;;5040407;28;20037;-69
2023/04/17 00:41:31;;;;;;;1999.90;999.90;;;32.80;78.40;;;;;;5047665;28;20032;-71
2023/04/17 00:43:59;;;;;;;1999.90;999.90;;;32.50;79.50;;;;;;5053436;28;20627;-69
2023/04/17 00:46:26;;;;;;;1999.90;999.90;;;32.50;78.80;;;;;;5060967;28;20044;-70
2023/04/17 00:48:54;;;;;;;1999.90;999.90;;;32.50;79.10;;;;;;5051006;28;20108;-71
2023/04/17 00:51:21;;;;;;;1999.90;999.90;;;32.30;78.60;;;;;;5050249;28;20551;-70
2023/04/17 00:53:49;;;;;;;1999.90;999.90;;;32.20;79.60;;;;;;5051234;28;20426;-69
2023/04/17 00:56:16;;;;;;;1999.90;999.90;;;32.20;79.00;;;;;;5052073;28;20585;-69
2023/04/17 00:58:44;;;;;;;1999.90;999.90;;;32.30;78.30;;;;;;5048221;28;20113;-68
2023/04/17 01:01:12;;;;;;;1999.90;999.90;;;32.30;79.10;;;;;;5041810;28;20340;-68
2023/04/17 01:03:40;;;;;;;1999.90;999.90;;;32.30;78.00;;;;;;5048741;28;21705;-70
2023/04/17 01:06:08;;;;;;;1999.90;999.90;;;32.50;78.70;;;;;;5046001;28;20037;-68
2023/04/17 01:08:43;;;;;;;1999.90;999.90;;;32.50;79.40;;;;;;5050147;28;20072;-70
2023/04/17 01:11:11;;;;;;;1999.90;999.90;;;32.60;78.80;;;;;;5042958;28;20033;-72
2023/04/17 01:13:48;;;;;;;1999.90;999.90;;;32.90;78.60;;;;;;5039281;28;20042;-68
2023/04/17 01:16:16;;;;;;;1999.90;999.90;;;33.20;78.30;;;;;;5056431;28;20040;-69
2023/04/17 01:18:43;;;;;;;1999.90;999.90;;;33.30;77.20;;;;;;5044511;28;20093;-69
2023/04/17 01:21:11;;;;;;;1999.90;999.90;;;32.20;77.30;;;;;;5056546;28;20059;-70
2023/04/17 01:23:51;;;;;;;1999.90;999.90;;;30.70;78.20;;;;;;5046222;28;20037;-68
2023/04/17 01:26:27;;;;;;;1999.90;999.90;;;29.40;79.80;;;;;;5057676;28;20029;-69
2023/04/17 01:28:59;;;;;;;1999.90;999.90;;;28.50;80.60;;;;;;5043972;28;20472;-69
2023/04/17 01:31:28;;;;;;;1999.90;999.90;;;28.70;80.80;;;;;;5037278;28;20146;-68
2023/04/17 01:33:55;;;;;;;1999.90;999.90;;;28.20;81.40;;;;;;5035028;28;20042;-70
2023/04/17 01:36:22;;;;;;;1999.90;999.90;;;28.10;82.80;;;;;;5044979;28;20531;-69
2023/04/17 01:38:50;;;;;;;1999.90;999.90;;;28.00;82.50;;;;;;5043918;28;20021;-69
2023/04/17 01:41:17;;;;;;;1999.90;999.90;;;27.60;83.40;;;;;;5056871;28;20033;-69
2023/04/17 01:43:46;;;;;;;1999.90;999.90;;;26.90;83.60;;;;;;5028702;28;20030;-69
2023/04/17 01:46:14;;;;;;;1999.90;999.90;;;26.10;84.60;;;;;;5033988;28;20036;-69
2023/04/17 01:48:41;;;;;;;1999.90;999.90;;;25.60;85.80;;;;;;5030558;28;20025;-70
2023/04/17 01:51:09;;;;;;;1999.90;999.90;;;25.20;87.20;;;;;;5035360;28;20029;-69
2023/04/17 01:53:38;;;;;;;1999.90;999.90;;;25.10;88.20;;;;;;5038412;28;20056;-70
2023/04/17 01:56:06;;;;;;;1999.90;999.90;;;25.00;88.50;;;;;;5055595;28;20391;-70
2023/04/17 01:58:33;;;;;;;1999.90;999.90;;;25.00;88.30;;;;;;5045929;28;20041;-69
2023/04/17 02:01:01;;;;;;;1999.90;999.90;;;24.80;88.30;;;;;;5034854;28;20094;-70
2023/04/17 02:03:30;;;;;;;1999.90;999.90;;;25.00;88.80;;;;;;5050447;28;20033;-70
2023/04/17 02:05:57;;;;;;;1999.90;999.90;;;25.70;88.40;;;;;;5038915;28;20033;-69
2023/04/17 02:08:25;;;;;;;1999.90;999.90;;;26.60;87.50;;;;;;5045931;28;20051;-70
2023/04/17 02:10:53;;;;;;;1999.90;999.90;;;26.60;85.90;;;;;;5033260;28;20471;-70
2023/04/17 02:13:21;;;;;;;1999.90;999.90;;;26.30;86.10;;;;;;5040418;28;20036;-69
2023/04/17 02:15:49;;;;;;;1999.90;999.90;;;26.00;86.50;;;;;;5055952;28;20031;-69
2023/04/17 02:18:16;;;;;;;1999.90;999.90;;;26.50;86.60;;;;;;5051994;28;20075;-69
2023/04/17 02:20:43;;;;;;;1999.90;999.90;;;27.40;85.90;;;;;;5051746;28;20051;-71
2023/04/17 02:23:11;;;;;;;1999.90;999.90;;;28.20;85.60;;;;;;5045370;28;20047;-69
2023/04/17 02:25:38;;;;;;;1999.90;999.90;;;28.60;82.70;;;;;;5043254;28;20021;-70
2023/04/17 02:28:06;;;;;;;1999.90;999.90;;;29.00;82.70;;;;;;5056617;28;20045;-71
2023/04/17 02:30:34;;;;;;;1999.90;999.90;;;29.50;82.50;;;;;;5048110;28;20029;-70
2023/04/17 02:33:01;;;;;;;1999.90;999.90;;;30.00;83.30;;;;;;5039616;28;20029;-70
2023/04/17 02:35:30;;;;;;;1999.90;999.90;;;30.30;81.40;;;;;;5029593;28;20454;-70
2023/04/17 02:37:58;;;;;;;1999.90;999.90;;;30.60;81.60;;;;;;5033323;28;20564;-69
2023/04/17 02:40:25;;;;;;;1999.90;999.90;;;30.80;81.00;;;;;;5037187;28;20020;-71
2023/04/17 02:42:53;;;;;;;1999.90;999.90;;;31.00;80.60;;;;;;5045064;28;20029;-70
2023/04/17 02:45:20;;;;;;;1999.90;999.90;;;31.30;81.40;;;;;;5041977;28;20025;-69
2023/04/17 02:47:48;;;;;;;1999.90;999.90;;;31.50;79.80;;;;;;5044046;28;20078;-69
2023/04/17 02:50:16;;;;;;;1999.90;999.90;;;31.40;78.30;;;;;;5034264;28;22071;-68
2023/04/17 02:52:43;;;;;;;1999.90;999.90;;;31.40;80.20;;;;;;5034776;28;20507;-69
2023/04/17 02:55:10;;;;;;;1999.90;999.90;;;31.50;79.60;;;;;;5044203;28;20032;-70
2023/04/17 02:57:38;;;;;;;1999.90;999.90;;;31.60;78.90;;;;;;5049204;28;20025;-68
2023/04/17 03:00:12;;;;;;;1999.90;999.90;;;31.20;78.10;;;;;;5051222;28;20036;-69
2023/04/17 03:02:40;;;;;;;1999.90;999.90;;;31.20;79.20;;;;;;5039409;28;20033;-70
2023/04/17 03:05:10;;;;;;;1999.90;999.90;;;31.30;79.60;;;;;;5039013;28;20036;-69
2023/04/17 03:07:37;;;;;;;1999.90;999.90;;;31.40;78.60;;;;;;5046517;28;20037;-70
2023/04/17 03:10:07;;;;;;;1999.90;999.90;;;31.50;78.70;;;;;;5027477;28;20967;-69
2023/04/17 03:12:35;;;;;;;1999.90;999.90;;;31.70;79.10;;;;;;5026979;28;20484;-69
2023/04/17 03:15:02;;;;;;;1999.90;999.90;;;31.70;80.20;;;;;;5032690;28;20041;-69
2023/04/17 03:17:30;;;;;;;1999.90;999.90;;;31.80;78.10;;;;;;5049323;28;20471;-69
2023/04/17 03:19:57;;;;;;;1999.90;999.90;;;31.60;77.40;;;;;;5038977;28;20029;-69
2023/04/17 03:22:24;;;;;;;1999.90;999.90;;;31.40;78.20;;;;;;5049482;28;20049;-69
2023/04/17 03:24:52;;;;;;;1999.90;999.90;;;31.00;77.80;;;;;;5043898;28;20027;-69
2023/04/17 03:27:23;;;;;;;1999.90;999.90;;;30.70;78.50;;;;;;5061418;28;20029;-70
2023/04/17 03:29:55;;;;;;;1999.90;999.90;;;30.70;79.00;;;;;;5052242;28;20435;-70
2023/04/17 03:32:22;;;;;;;1999.90;999.90;;;30.80;78.90;;;;;;5056038;28;20427;-70
2023/04/17 03:34:50;;;;;;;1999.90;999.90;;;30.90;79.40;;;;;;5048884;28;20036;-69
2023/04/17 03:37:17;;;;;;;1999.90;999.90;;;30.90;79.10;;;;;;5061460;28;20033;-68
2023/04/17 03:39:44;;;;;;;1999.90;999.90;;;30.90;79.10;;;;;;5049459;28;20059;-70
2023/04/17 03:42:13;;;;;;;1999.90;999.90;;;30.80;78.00;;;;;;5055613;28;20017;-69
2023/04/17 03:44:40;;;;;;;1999.90;999.90;;;30.50;77.90;;;;;;5042675;28;20040;-68
2023/04/17 03:47:08;;;;;;;1999.90;999.90;;;30.40;78.40;;;;;;5047712;28;20132;-69
2023/04/17 03:49:35;;;;;;;1999.90;999.90;;;30.30;78.70;;;;;;5047457;28;20117;-70
2023/04/17 03:52:02;;;;;;;1999.90;999.90;;;30.30;78.80;;;;;;5037740;28;20179;-69
2023/04/17 03:54:34;;;;;;;1999.90;999.90;;;30.30;79.30;;;;;;5040931;28;20124;-69
2023/04/17 03:57:02;;;;;;;1999.90;999.90;;;30.40;79.20;;;;;;5048160;28;20029;-70
2023/04/17 03:59:31;;;;;;;1999.90;999.90;;;30.10;78.00;;;;;;5049044;28;20028;-70
2023/04/17 04:01:58;;;;;;;1999.90;999.90;;;29.20;78.70;;;;;;5050191;28;20033;-70
2023/04/17 04:04:26;;;;;;;1999.90;999.90;;;28.50;79.80;;;;;;5048734;28;20030;-70
2023/04/17 04:06:56;;;;;;;1999.90;999.90;;;27.80;80.30;;;;;;5056809;28;20028;-69
2023/04/17 04:09:24;;;;;;;1999.90;999.90;;;27.40;80.90;;;;;;5047716;28;20041;-68
2023/04/17 04:11:52;;;;;;;1999.90;999.90;;;27.00;81.90;;;;;;5044646;28;20029;-70
2023/04/17 04:14:19;;;;;;;1999.90;999.90;;;26.90;82.00;;;;;;5048980;28;20115;-69
2023/04/17 04:16:46;;;;;;;1999.90;999.90;;;26.80;82.90;;;;;;5049591;28;20025;-70
2023/04/17 04:19:14;;;;;;;1999.90;999.90;;;26.60;82.30;;;;;;5048121;28;20070;-69
2023/04/17 04:21:42;;;;;;;1999.90;999.90;;;26.40;82.60;;;;;;5048343;28;20021;-70
2023/04/17 04:24:12;;;;;;;1999.90;999.90;;;26.20;83.10;;;;;;5043337;28;20029;-70
2023/04/17 04:26:39;;;;;;;1999.90;999.90;;;26.10;83.20;;;;;;5036270;28;20049;-70
2023/04/17 04:29:08;;;;;;;1999.90;999.90;;;26.00;83.70;;;;;;5051341;28;20063;-71
2023/04/17 04:31:36;;;;;;;1999.90;999.90;;;25.80;84.50;;;;;;5037832;28;20104;-70
2023/04/17 04:34:04;;;;;;;1999.90;999.90;;;25.70;84.10;;;;;;5034109;28;20021;-71
2023/04/17 04:36:34;;;;;;;1999.90;999.90;;;25.50;83.10;;;;;;5039059;28;20074;-69
2023/04/17 04:39:05;;;;;;;1999.90;999.90;;;25.30;84.70;;;;;;5035620;28;20033;-70
2023/04/17 04:41:33;;;;;;;1999.90;999.90;;;25.00;88.90;;;;;;5048576;28;20036;-70
2023/04/17 04:44:01;;;;;;;1999.90;999.90;;;24.60;90.70;;;;;;5041985;28;20029;-69
2023/04/17 04:46:28;;;;;;;1999.90;999.90;;;24.10;91.30;;;;;;5039151;28;20026;-70
2023/04/17 04:48:55;;;;;;;1999.90;999.90;;;23.90;91.80;;;;;;5032771;28;20025;-70
2023/04/17 04:51:22;;;;;;;1999.90;999.90;;;23.50;92.20;;;;;;5032297;28;20029;-70
2023/04/17 04:53:50;;;;;;;1999.90;999.90;;;23.30;92.80;;;;;;5040328;28;20057;-69
2023/04/17 04:56:17;;;;;;;1999.90;999.90;;;23.10;93.10;;;;;;5032543;28;20024;-69
2023/04/17 04:58:45;;;;;;;1999.90;999.90;;;23.00;93.40;;;;;;5029463;28;23037;-68
2023/04/17 05:01:12;;;;;;;1999.90;999.90;;;22.70;93.90;;;;;;5035089;28;20060;-69
2023/04/17 05:03:39;;;;;;;1999.90;999.90;;;22.60;94.30;;;;;;5033242;28;20025;-70
2023/04/17 05:06:08;;;;;;;1999.90;999.90;;;22.50;94.50;;;;;;5042519;28;20091;-69
2023/04/17 05:08:35;;;;;;;1999.90;999.90;;;22.50;94.90;;;;;;5047770;28;20538;-70
2023/04/17 05:11:03;;;;;;;1999.90;999.90;;;22.60;94.90;;;;;;5057937;28;20036;-71
2023/04/17 05:13:30;;;;;;;1999.90;999.90;;;22.80;94.80;;;;;;5055321;28;20182;-71
2023/04/17 05:15:58;;;;;;;1999.90;999.90;;;22.90;94.80;;;;;;5048704;28;20039;-70
2023/04/17 05:18:25;;;;;;;1999.90;999.90;;;23.20;94.50;;;;;;5060705;28;20037;-69
2023/04/17 05:20:52;;;;;;;1999.90;999.90;;;23.50;94.10;;;;;;5051458;28;20021;-69
2023/04/17 05:23:21;;;;;;;1999.90;999.90;;;23.70;93.90;;;;;;5054336;28;21604;-70
2023/04/17 05:25:49;;;;;;;1999.90;999.90;;;23.90;93.40;;;;;;5055046;28;20028;-70
2023/04/17 05:28:16;;;;;;;1999.90;999.90;;;24.00;93.30;;;;;;5055308;28;20045;-70
2023/04/17 05:30:44;;;;;;;1999.90;999.90;;;24.10;93.20;;;;;;5054228;28;20028;-70
2023/04/17 05:33:11;;;;;;;1999.90;999.90;;;24.10;93.20;;;;;;5055874;28;20040;-70
2023/04/17 05:35:39;;;;;;;1999.90;999.90;;;24.10;93.20;;;;;;5047715;28;20025;-70
2023/04/17 05:38:06;;;;;;;1999.90;999.90;;;24.10;93.10;;;;;;5045442;28;20053;-69
2023/04/17 05:40:34;;;;;;;1999.90;999.90;;;24.00;93.10;;;;;;5045612;28;20021;-70
2023/04/17 05:43:09;;;;;;;1999.90;999.90;;;24.00;93.30;;;;;;5051445;28;20041;-69
2023/04/17 05:45:36;;;;;;;1999.90;999.90;;;24.10;93.10;;;;;;5045468;28;20051;-70
2023/04/17 05:48:04;;;;;;;1999.90;999.90;;;24.10;93.20;;;;;;5049430;28;20033;-68
2023/04/17 05:50:31;;;;;;;1999.90;999.90;;;24.10;93.20;;;;;;5036766;28;20033;-69
2023/04/17 05:52:59;;;;;;;1999.90;999.90;;;24.10;93.30;;;;;;5053071;28;20037;-70
2023/04/17 05:55:26;;;;;;;1999.90;999.90;;;24.10;93.30;;;;;;5045274;28;20116;-70
2023/04/17 05:57:53;;;;;;;1999.90;999.90;;;24.20;93.40;;;;;;5044013;28;20484;-69
2023/04/17 06:00:21;;;;;;;1999.90;999.90;;;24.10;93.30;;;;;;5044492;28;20152;-70
2023/04/17 06:02:49;;;;;;;1999.90;999.90;;;24.10;93.50;;;;;;5042745;28;20563;-69
2023/04/17 06:05:17;;;;;;;1999.90;999.90;;;24.00;93.40;;;;;;5044297;28;20025;-69
2023/04/17 06:07:44;;;;;;;1999.90;999.90;;;24.00;93.40;;;;;;5050572;28;20676;-69
2023/04/17 06:10:12;;;;;;;1999.90;999.90;;;24.00;93.50;;;;;;5040789;28;20067;-70
2023/04/17 06:12:39;;;;;;;1999.90;999.90;;;23.90;93.50;;;;;;5048587;28;20064;-69
2023/04/17 06:15:10;;;;;;;1999.90;999.90;;;23.80;93.40;;;;;;5045919;28;20203;-70
2023/04/17 06:17:38;;;;;;;1999.90;999.90;;;23.70;93.50;;;;;;5050682;28;20036;-69
2023/04/17 06:20:10;;;;;;;1999.90;999.90;;;23.60;93.80;;;;;;5045361;28;20025;-69
2023/04/17 06:22:39;;;;;;;1999.90;999.90;;;23.50;94.10;;;;;;5048497;28;20036;-70
2023/04/17 06:25:08;;;;;;;1999.90;999.90;;;23.30;94.50;;;;;;5054418;28;20036;-68
2023/04/17 06:27:35;;;;;;;1999.90;999.90;;;23.20;94.90;;;;;;5047795;28;20048;-70
2023/04/17 06:30:03;;;;;;;1999.90;999.90;;;23.10;94.70;;;;;;5041579;28;20029;-69
2023/04/17 06:32:32;;;;;;;1999.90;999.90;;;23.00;94.70;;;;;;5038520;28;20021;-68
2023/04/17 06:34:59;;;;;;;1999.90;999.90;;;23.00;95.00;;;;;;5043449;28;20091;-69
2023/04/17 06:37:26;;;;;;;1999.90;999.90;;;22.90;95.00;;;;;;5051815;28;20027;-69
2023/04/17 06:39:54;;;;;;;1999.90;999.90;;;22.70;95.10;;;;;;5044224;28;20038;-70
2023/04/17 06:42:21;;;;;;;1999.90;999.90;;;22.60;95.40;;;;;;5047051;28;20506;-70
2023/04/17 06:44:48;;;;;;;1999.90;999.90;;;22.50;95.50;;;;;;5052860;28;20028;-69
2023/04/17 06:47:16;;;;;;;1999.90;999.90;;;22.40;95.80;;;;;;5050789;28;20036;-68
2023/04/17 06:49:43;;;;;;;1999.90;999.90;;;22.30;96.00;;;;;;5052178;28;20475;-69
2023/04/17 06:52:10;;;;;;;1999.90;999.90;;;22.20;96.00;;;;;;5056286;28;20149;-69
2023/04/17 06:54:38;;;;;;;1999.90;999.90;;;22.10;96.30;;;;;;5055496;28;20025;-69
2023/04/17 06:57:08;;;;;;;1999.90;999.90;;;22.10;96.30;;;;;;5050150;28;20028;-69
2023/04/17 06:59:35;;;;;;;1999.90;999.90;;;22.00;96.50;;;;;;5050500;28;20032;-69
2023/04/17 07:02:03;;;;;;;1999.90;999.90;;;21.90;96.60;;;;;;5045282;28;20476;-69
2023/04/17 07:04:31;;;;;;;1999.90;999.90;;;21.90;96.80;;;;;;5052178;28;20538;-71
2023/04/17 07:06:58;;;;;;;1999.90;999.90;;;21.80;96.90;;;;;;5047841;28;20020;-69
2023/04/17 07:09:26;;;;;;;1999.90;999.90;;;21.70;97.10;;;;;;5037513;28;20148;-68
2023/04/17 07:11:53;;;;;;;1999.90;999.90;;;21.60;97.30;;;;;;5046539;28;20056;-69
2023/04/17 07:14:23;;;;;;;1999.90;999.90;;;21.60;97.50;;;;;;5054592;28;20505;-71
2023/04/17 07:16:51;;;;;;;1999.90;999.90;;;21.60;97.70;;;;;;5054055;28;20463;-70
2023/04/17 07:19:19;;;;;;;1999.90;999.90;;;21.60;97.40;;;;;;5050877;28;20044;-68
2023/04/17 07:21:46;;;;;;;1999.90;999.90;;;21.50;97.40;;;;;;5046084;28;20736;-68
2023/04/17 07:24:13;;;;;;;1999.90;999.90;;;21.40;97.60;;;;;;5047470;28;20037;-69
2023/04/17 07:26:42;;;;;;;1999.90;999.90;;;21.40;97.60;;;;;;5047049;28;20037;-70
2023/04/17 07:29:10;;;;;;;1999.90;999.90;;;21.40;97.50;;;;;;5044564;28;20102;-69
2023/04/17 07:31:37;;;;;;;1999.90;999.90;;;21.20;97.70;;;;;;5052152;28;20025;-70
2023/04/17 07:34:05;;;;;;;1999.90;999.90;;;21.00;97.90;;;;;;5050909;28;20036;-69
2023/04/17 07:36:32;;;;;;;1999.90;999.90;;;20.90;98.30;;;;;;5063079;28;20029;-70
2023/04/17 07:39:00;;;;;;;1999.90;999.90;;;20.80;98.60;;;;;;5044913;28;20029;-70
2023/04/17 07:41:27;;;;;;;1999.90;999.90;;;20.70;98.70;;;;;;5060925;28;20025;-70
2023/04/17 07:43:55;;;;;;;1999.90;999.90;;;20.50;98.90;;;;;;5036364;28;20458;-71
2023/04/17 07:46:22;;;;;;;1999.90;999.90;;;20.40;98.90;;;;;;5048763;28;20029;-70
2023/04/17 07:48:49;;;;;;;1999.90;999.90;;;20.40;99.00;;;;;;5041049;28;20220;-71
2023/04/17 07:51:16;;;;;;;1999.90;999.90;;;20.30;99.10;;;;;;5048065;28;20032;-70
2023/04/17 07:53:45;;;;;;;1999.90;999.90;;;20.20;99.20;;;;;;5045310;28;20052;-71
2023/04/17 07:56:12;;;;;;;1999.90;999.90;;;20.20;99.40;;;;;;5046940;28;20024;-70
2023/04/17 07:58:40;;;;;;;1999.90;999.90;;;20.10;99.60;;;;;;5043814;28;20040;-72
2023/04/17 08:01:08;;;;;;;1999.90;999.90;;;20.00;99.60;;;;;;5040639;28;20104;-69
2023/04/17 08:03:35;;;;;;;1999.90;999.90;;;19.90;99.90;;;;;;5048111;28;20455;-70
2023/04/17 08:06:02;;;;;;;1999.90;999.90;;;19.80;99.90;;;;;;5030611;28;20096;-70
2023/04/17 08:08:30;;;;;;;1999.90;999.90;;;19.70;99.90;;;;;;5048792;28;20040;-69
2023/04/17 08:10:58;;;;;;;1999.90;999.90;;;19.60;99.90;;;;;;5035881;28;20139;-69
2023/04/17 08:13:25;;;;;;;1999.90;999.90;;;19.50;99.90;;;;;;5041769;28;20130;-70
2023/04/17 08:15:53;;;;;;;1999.90;999.90;;;19.40;99.90;;;;;;5037589;28;20029;-70
2023/04/17 08:18:20;;;;;;;1999.90;999.90;;;19.40;99.90;;;;;;5036307;28;20840;-70
2023/04/17 08:20:48;;;;;;;1999.90;999.90;;;19.30;99.90;;;;;;5052300;28;20028;-69
2023/04/17 08:23:15;;;;;;;1999.90;999.90;;;19.20;99.90;;;;;;5055390;28;20029;-70
2023/04/17 08:25:43;;;;;;;1999.90;999.90;;;19.20;99.90;;;;;;5051996;28;20076;-71
2023/04/17 08:28:11;;;;;;;1999.90;999.90;;;19.10;99.90;;;;;;5048458;28;20496;-69
2023/04/17 08:30:38;;;;;;;1999.90;999.90;;;19.00;99.90;;;;;;5049166;28;20039;-70
2023/04/17 08:33:05;;;;;;;1999.90;999.90;;;19.00;99.90;;;;;;5055094;28;20552;-68
2023/04/17 08:35:33;;;;;;;1999.90;999.90;;;18.90;99.90;;;;;;5046301;28;20044;-69
2023/04/17 08:38:00;;;;;;;1999.90;999.90;;;18.90;99.90;;;;;;5054230;28;20035;-70
2023/04/17 08:40:27;;;;;;;1999.90;999.90;;;18.80;99.90;;;;;;5048292;28;20092;-69
2023/04/17 08:42:55;;;;;;;1999.90;999.90;;;18.80;99.90;;;;;;5050977;28;20048;-69
2023/04/17 08:45:23;;;;;;;1999.90;999.90;;;18.80;99.90;;;;;;5048532;28;20084;-70
2023/04/17 08:47:51;;;;;;;1999.90;999.90;;;18.70;99.90;;;;;;5046949;28;20054;-69
2023/04/17 08:50:20;;;;;;;1999.90;999.90;;;18.70;99.90;;;;;;5051791;28;20024;-69
2023/04/17 08:52:50;;;;;;;1999.90;999.90;;;18.80;99.90;;;;;;5049646;28;20036;-69
2023/04/17 08:55:24;;;;;;;1999.90;999.90;;;18.80;99.90;;;;;;5045116;28;20021;-68
2023/04/17 08:57:55;;;;;;;1999.90;999.90;;;18.80;99.90;;;;;;5055653;28;20471;-69
2023/04/17 09:00:27;;;;;;;1999.90;999.90;;;18.90;99.90;;;;;;5044012;28;20036;-70
2023/04/17 09:02:56;;;;;;;1999.90;999.90;;;19.00;99.90;;;;;;5049462;28;20063;-70
2023/04/17 09:05:25;;;;;;;1999.90;999.90;;;19.00;99.90;;;;;;5052979;28;20092;-68
2023/04/17 09:08:22;;;;;;;1999.90;999.90;;;19.00;99.90;;;;;;5050536;28;20040;-69
2023/04/17 09:10:51;;;;;;;1999.90;999.90;;;19.10;99.90;;;;;;5050638;28;20029;-69
2023/04/17 09:13:24;;;;;;;1999.90;999.90;;;19.10;99.90;;;;;;5051759;28;20495;-69
2023/04/17 09:16:11;;;;;;;1999.90;999.90;;;19.10;99.90;;;;;;5049626;28;20025;-70
2023/04/17 09:18:41;;;;;;;1999.90;999.90;;;19.10;99.90;;;;;;5051201;28;20044;-69
2023/04/17 09:21:09;;;;;;;1999.90;999.90;;;19.10;99.90;;;;;;5049051;28;20083;-69
2023/04/17 09:23:54;;;;;;;1999.90;999.90;;;19.10;99.90;;;;;;5045511;28;20025;-70
2023/04/17 09:26:23;;;;;;;1999.90;999.90;;;19.10;99.90;;;;;;5045390;28;20029;-69
2023/04/17 09:29:04;;;;;;;1999.90;999.90;;;19.10;99.90;;;;;;5042840;28;20026;-69
2023/04/17 09:31:36;;;;;;;1999.90;999.90;;;19.10;99.90;;;;;;5050669;28;20139;-69
2023/04/17 09:34:09;;;;;;;1999.90;999.90;;;19.10;99.90;;;;;;5045081;28;20045;-69
2023/04/17 09:36:38;;;;;;;1999.90;999.90;;;19.00;99.90;;;;;;5048471;28;20052;-69
2023/04/17 09:39:19;;;;;;;1999.90;999.90;;;18.90;99.90;;;;;;5044682;28;20021;-69
2023/04/17 09:41:46;;;;;;;1999.90;999.90;;;18.90;99.90;;;;;;5050139;28;20078;-68
2023/04/17 09:44:26;;;;;;;1999.90;999.90;;;18.90;99.90;;;;;;5051009;28;20021;-69
2023/04/17 09:46:54;;;;;;;1999.90;999.90;;;18.80;99.90;;;;;;5049799;28;20032;-69
2023/04/17 09:49:41;;;;;;;1999.90;999.90;;;18.70;99.90;;;;;;5051467;28;20082;-69
2023/04/17 09:52:09;;;;;;;1999.90;999.90;;;18.70;99.90;;;;;;5054361;28;20021;-70
2023/04/17 09:54:36;;;;;;;1999.90;999.90;;;18.60;99.90;;;;;;5050059;28;20525;-70
2023/04/17 09:57:08;;;;;;;1999.90;999.90;;;18.50;99.90;;;;;;5050240;28;20440;-70
2023/04/17 09:59:49;;;;;;;1999.90;999.90;;;18.50;99.90;;;;;;5047957;28;20076;-69
2023/04/17 10:02:20;;;;;;;1999.90;999.90;;;18.40;99.90;;;;;;5052359;28;20040;-70
2023/04/17 10:04:47;;;;;;;1999.90;999.90;;;18.30;99.90;;;;;;5045310;28;20021;-68
2023/04/17 10:07:16;;;;;;;1999.90;999.90;;;18.30;99.90;;;;;;5059174;28;20048;-69
2023/04/17 10:09:44;;;;;;;1999.90;999.90;;;18.30;99.90;;;;;;5048564;28;20041;-70
2023/04/17 10:12:19;;;;;;;1999.90;999.90;;;18.30;99.90;;;;;;5053632;28;20090;-69
2023/04/17 10:14:51;;;;;;;1999.90;999.90;;;18.30;99.90;;;;;;5052023;28;20111;-70
2023/04/17 10:17:30;;;;;;;1999.90;999.90;;;18.20;99.90;;;;;;5052132;28;20098;-70
2023/04/17 10:20:18;;;;;;;1999.90;999.90;;;18.20;99.90;;;;;;5046056;28;20069;-68
2023/04/17 10:22:56;;;;;;;1999.90;999.90;;;18.20;99.90;;;;;;5059790;28;20061;-70
2023/04/17 10:25:25;;;;;;;1999.90;999.90;;;18.10;99.90;;;;;;5052068;28;20121;-69
2023/04/17 10:27:55;;;;;;;1999.90;999.90;;;18.20;99.90;;;;;;5057541;28;20077;-69
2023/04/17 10:30:23;;;;;;;1999.90;999.90;;;18.20;99.90;;;;;;5043024;28;20208;-69
2023/04/17 10:33:11;;;;;;;1999.90;999.90;;;18.10;99.90;;;;;;5047437;28;20887;-68
2023/04/17 10:35:39;;;;;;;1999.90;999.90;;;18.10;99.90;;;;;;5047773;28;20024;-70
2023/04/17 10:38:10;;;;;;;1999.90;999.90;;;18.10;99.90;;;;;;5051289;28;20423;-69
2023/04/17 10:40:38;;;;;;;1999.90;999.90;;;18.10;99.90;;;;;;5046387;28;20032;-69
2023/04/17 10:43:13;;;;;;;1999.90;999.90;;;18.10;99.90;;;;;;5048304;28;20499;-69
2023/04/17 10:45:59;;;;;;;1999.90;999.90;;;18.10;99.90;;;;;;5046107;28;20029;-68
2023/04/17 10:48:33;;;;;;;1999.90;999.90;;;18.10;99.90;;;;;;5042989;28;20041;-68
2023/04/17 10:51:25;;;;;;;1999.90;999.90;;;18.10;99.90;;;;;;5047427;28;20036;-70
2023/04/17 10:53:59;;;;;;;1999.90;999.90;;;18.10;99.90;;;;;;5044234;28;20360;-69
2023/04/17 10:56:46;;;;;;;1999.90;999.90;;;18.10;99.90;;;;;;5051418;28;20121;-69
2023/04/17 10:59:18;;;;;;;1999.90;999.90;;;18.10;99.90;;;;;;5047109;28;20518;-69
2023/04/17 11:01:48;;;;;;;1999.90;999.90;;;18.00;99.90;;;;;;5046323;28;20039;-70
2023/04/17 11:04:23;;;;;;;1999.90;999.90;;;18.00;99.90;;;;;;5042777;28;20519;-71
2023/04/17 11:06:52;;;;;;;1999.90;999.90;;;17.90;99.90;;;;;;5041348;28;20154;-71
2023/04/17 11:09:26;;;;;;;1999.90;999.90;;;17.90;99.90;;;;;;5039066;28;20472;-70
2023/04/17 11:11:54;;;;;;;1999.90;999.90;;;17.90;99.90;;;;;;5045283;28;20041;-69
2023/04/17 11:14:22;;;;;;;1999.90;999.90;;;17.90;99.90;;;;;;5032650;28;20407;-70
2023/04/17 11:16:51;;;;;;;1999.90;999.90;;;17.90;99.90;;;;;;5046877;28;20472;-69
2023/04/17 11:19:20;;;;;;;1999.90;999.90;;;17.90;99.90;;;;;;5049502;28;20032;-70
2023/04/17 11:21:52;;;;;;;1999.90;999.90;;;17.90;99.90;;;;;;5053899;28;20483;-69
2023/04/17 11:24:30;;;;;;;1999.90;999.90;;;17.80;99.90;;;;;;5046388;28;20037;-69
2023/04/17 11:26:59;;;;;;;1999.90;999.90;;;17.80;99.90;;;;;;5057041;28;20028;-71
2023/04/17 11:29:27;;;;;;;1999.90;999.90;;;17.80;99.90;;;;;;5040299;28;20504;-69
2023/04/17 11:31:57;;;;;;;1999.90;999.90;;;17.70;99.90;;;;;;5052322;28;20036;-70
2023/04/17 11:34:25;;;;;;;1999.90;999.90;;;17.70;99.90;;;;;;5053079;28;20040;-69
2023/04/17 11:36:55;;;;;;;1999.90;999.90;;;17.70;99.90;;;;;;5046747;28;20039;-69
2023/04/17 11:39:28;;;;;;;1999.90;999.90;;;17.60;99.90;;;;;;5048895;28;20511;-69
2023/04/17 11:41:56;;;;;;;1999.90;999.90;;;17.60;99.90;;;;;;5058273;28;20060;-69
2023/04/17 11:44:24;;;;;;;1999.90;999.90;;;17.50;99.90;;;;;;5051596;28;20391;-69
2023/04/17 11:46:53;;;;;;;1999.90;999.90;;;17.50;99.90;;;;;;5051160;28;20029;-69
2023/04/17 11:49:31;;;;;;;1999.90;999.90;;;17.50;99.90;;;;;;5047237;28;20021;-70
2023/04/17 11:52:03;;;;;;;1999.90;999.90;;;17.50;99.90;;;;;;5051606;28;20137;-69
2023/04/17 11:54:38;;;;;;;1999.90;999.90;;;17.50;99.90;;;;;;5048069;28;20480;-69
2023/04/17 11:57:15;;;;;;;1999.90;999.90;;;17.50;99.90;;;;;;5053781;28;20472;-68
2023/04/17 11:59:44;;;;;;;1999.90;999.90;;;17.50;99.90;;;;;;5048942;28;20061;-69
2023/04/17 12:02:12;;;;;;;1999.90;999.90;;;17.50;99.90;;;;;;5053182;28;20070;-69
2023/04/17 12:04:39;;;;;;;1999.90;999.90;;;17.40;99.90;;;;;;5046511;28;20035;-68
2023/04/17 12:07:07;;;;;;;1999.90;999.90;;;17.40;99.90;;;;;;5056399;28;20032;-69
2023/04/17 12:09:35;;;;;;;1999.90;999.90;;;17.40;99.90;;;;;;5045171;28;20041;-68